Time;durP1;ratioP1;P1;durP2;ratioP2;P2;SDS_P1;SDS_P2;PMS_P1;PMS_P2;Temp;Humidity;BMP_temperature;BMP_pressure;BME280_temperature;BME280_humidity;BME280_pressure;Samples;Min_cycle;Max_cycle;Signal;HPM_P1;HPM_P2
2024/02/28 06:09:38;;;;;;;12.33;5.93;;;;;;;2.81;100.00;101277.41;4894911;29;20097;-91
2024/02/28 06:14:01;;;;;;;11.40;5.47;;;;;;;2.80;100.00;101273.91;4894294;29;20524;-91
2024/02/28 06:21:49;;;;;;;12.17;6.23;;;;;;;2.77;100.00;101286.88;4896105;29;20054;-90
2024/02/28 06:25:50;;;;;;;9.57;5.63;;;;;;;2.74;100.00;101289.44;4852588;29;20133;-90
2024/02/28 06:29:45;;;;;;;11.30;6.20;;;;;;;2.83;100.00;101292.22;4870977;29;20059;-90
2024/02/28 06:38:07;;;;;;;10.13;5.47;;;;;;;2.75;100.00;101303.34;4843140;29;20065;-89
2024/02/28 06:40:45;;;;;;;11.43;5.93;;;;;;;2.76;100.00;101313.81;4873842;29;20045;-89
2024/02/28 06:43:12;;;;;;;10.17;4.87;;;;;;;2.79;100.00;101302.59;4843238;29;20061;-90
2024/02/28 06:45:39;;;;;;;9.80;5.57;;;;;;;2.82;100.00;101310.47;4843627;29;20071;-90
2024/02/28 06:48:07;;;;;;;9.20;5.13;;;;;;;2.79;100.00;101311.28;4859346;29;20049;-91
2024/02/28 06:50:35;;;;;;;14.20;5.60;;;;;;;2.82;100.00;101323.50;4829422;29;20132;-91
2024/02/28 06:53:02;;;;;;;9.83;4.90;;;;;;;2.82;100.00;101321.78;4874690;29;20406;-91
2024/02/28 06:55:30;;;;;;;10.80;5.07;;;;;;;2.78;100.00;101322.56;4875336;29;20048;-91
2024/02/28 06:57:57;;;;;;;11.73;5.30;;;;;;;2.76;100.00;101315.53;4875870;29;20063;-88
2024/02/28 07:00:24;;;;;;;11.80;5.40;;;;;;;2.86;100.00;101311.41;4906838;23;20048;-89
2024/02/28 07:02:53;;;;;;;11.17;5.67;;;;;;;2.83;100.00;101309.63;4889207;29;20063;-89
2024/02/28 07:05:20;;;;;;;10.67;5.30;;;;;;;2.83;100.00;101313.09;4881286;29;20047;-89
2024/02/28 07:07:47;;;;;;;12.47;6.43;;;;;;;2.80;100.00;101307.81;4881560;29;20059;-89
2024/02/28 07:10:14;;;;;;;9.27;4.87;;;;;;;2.88;100.00;101317.56;4881514;29;20052;-90
2024/02/28 07:12:41;;;;;;;10.77;5.13;;;;;;;2.88;100.00;101318.44;4881140;29;20151;-88
2024/02/28 07:15:09;;;;;;;9.80;5.67;;;;;;;2.91;100.00;101312.38;4881279;29;20577;-89
2024/02/28 07:17:36;;;;;;;10.40;4.73;;;;;;;3.04;100.00;101319.63;4881099;29;20083;-89
2024/02/28 07:20:04;;;;;;;9.50;4.83;;;;;;;2.96;100.00;101321.22;4866020;29;20578;-88
2024/02/28 07:22:31;;;;;;;8.57;4.37;;;;;;;3.02;100.00;101329.16;4881511;29;20500;-90
2024/02/28 07:24:58;;;;;;;7.67;4.30;;;;;;;2.92;100.00;101316.75;4881198;29;20050;-89
2024/02/28 07:27:25;;;;;;;10.37;4.70;;;;;;;2.91;100.00;101325.44;4883143;29;20636;-89
2024/02/28 07:29:53;;;;;;;9.77;4.90;;;;;;;3.01;100.00;101325.66;4881108;29;20040;-89
2024/02/28 07:32:20;;;;;;;9.40;5.20;;;;;;;3.00;100.00;101328.25;4879703;29;20063;-89
2024/02/28 07:34:47;;;;;;;8.67;4.70;;;;;;;3.02;100.00;101330.03;4899984;29;20046;-90
2024/02/28 07:37:14;;;;;;;8.40;4.47;;;;;;;3.06;100.00;101334.47;4900057;29;20219;-90
2024/02/28 07:39:41;;;;;;;8.63;4.10;;;;;;;3.06;100.00;101338.81;4884476;29;20087;-90
2024/02/28 07:42:08;;;;;;;7.63;3.50;;;;;;;3.07;100.00;101337.97;4899882;29;20048;-89
2024/02/28 07:44:36;;;;;;;6.10;3.97;;;;;;;3.10;100.00;101338.00;4869206;29;20044;-89
2024/02/28 07:47:03;;;;;;;6.10;3.60;;;;;;;2.97;100.00;101342.13;4884704;29;20503;-89
2024/02/28 07:49:30;;;;;;;6.60;4.03;;;;;;;3.01;100.00;101353.50;4900205;29;20104;-89
2024/02/28 07:51:57;;;;;;;6.83;3.50;;;;;;;3.16;100.00;101353.81;4899799;29;20123;-89
2024/02/28 07:54:25;;;;;;;6.07;5.00;;;;;;;3.16;100.00;101359.03;4884277;29;20047;-89
2024/02/28 07:56:52;;;;;;;6.00;3.50;;;;;;;3.13;100.00;101361.59;4869063;29;20055;-89
2024/02/28 07:59:19;;;;;;;10.27;7.30;;;;;;;3.10;100.00;101358.91;4915962;29;20064;-89
2024/02/28 08:01:47;;;;;;;7.20;5.67;;;;;;;3.18;100.00;101351.22;4877146;29;20044;-89
2024/02/28 08:04:15;;;;;;;8.33;5.07;;;;;;;3.07;100.00;101351.03;4884099;29;20054;-89
2024/02/28 08:06:42;;;;;;;8.93;4.80;;;;;;;3.01;100.00;101364.81;4899563;29;20048;-88
2024/02/28 08:09:09;;;;;;;11.53;6.00;;;;;;;2.97;100.00;101363.00;4884053;29;20062;-89
2024/02/28 08:11:39;;;;;;;9.90;5.73;;;;;;;3.08;100.00;101369.31;4884187;29;20124;-89
2024/02/28 08:14:07;;;;;;;9.50;4.97;;;;;;;3.10;100.00;101379.78;4883760;29;20056;-89
2024/02/28 08:16:34;;;;;;;10.27;5.60;;;;;;;3.09;100.00;101383.25;4868960;29;20474;-89
2024/02/28 08:19:01;;;;;;;11.17;5.13;;;;;;;3.06;100.00;101372.75;4868586;29;20044;-90
2024/02/28 08:21:29;;;;;;;8.27;5.13;;;;;;;3.07;100.00;101379.72;4899309;29;20072;-89
2024/02/28 08:23:57;;;;;;;13.07;7.03;;;;;;;3.00;100.00;101368.28;4899179;29;20107;-90
2024/02/28 08:26:25;;;;;;;9.47;6.47;;;;;;;3.13;100.00;101374.66;4883585;29;20055;-90
2024/02/28 08:28:52;;;;;;;8.33;4.97;;;;;;;3.02;100.00;101368.28;4883683;29;20079;-89
2024/02/28 08:31:19;;;;;;;8.43;4.80;;;;;;;2.88;100.00;101369.75;4889012;29;20419;-90
2024/02/28 08:33:46;;;;;;;10.43;5.53;;;;;;;2.97;100.00;101373.44;4871256;29;20076;-88
2024/02/28 08:36:15;;;;;;;15.10;11.07;;;;;;;3.05;100.00;101373.59;4880350;29;20101;-91
2024/02/28 08:38:42;;;;;;;10.50;7.30;;;;;;;2.93;100.00;101370.72;4871453;29;20637;-90
2024/02/28 08:41:12;;;;;;;8.00;5.40;;;;;;;2.88;100.00;101365.41;4885802;29;20064;-88
2024/02/28 08:43:40;;;;;;;9.00;4.53;;;;;;;2.96;100.00;101368.19;4885972;29;20053;-91
2024/02/28 08:46:07;;;;;;;8.03;5.03;;;;;;;2.98;100.00;101369.97;4866160;29;20041;-90
2024/02/28 08:48:35;;;;;;;9.37;4.63;;;;;;;2.98;100.00;101376.94;4866266;29;20187;-90
2024/02/28 08:51:02;;;;;;;9.33;5.30;;;;;;;2.99;100.00;101369.13;4850745;29;20108;-89
2024/02/28 08:53:29;;;;;;;8.03;4.90;;;;;;;2.91;100.00;101368.06;4865307;29;20100;-90
2024/02/28 08:55:56;;;;;;;8.63;4.43;;;;;;;2.83;100.00;101372.25;4880931;29;20052;-90
2024/02/28 08:58:23;;;;;;;8.63;4.83;;;;;;;3.01;100.00;101383.09;4865598;29;20052;-90
2024/02/28 09:00:51;;;;;;;8.90;5.33;;;;;;;2.88;100.00;101377.56;4896311;29;20127;-90
2024/02/28 09:03:19;;;;;;;9.97;5.70;;;;;;;2.92;100.00;101384.63;4869877;29;20144;-90
2024/02/28 09:05:47;;;;;;;11.17;5.90;;;;;;;3.06;100.00;101384.06;4880176;29;20051;-90
2024/02/28 09:08:15;;;;;;;12.23;7.80;;;;;;;3.05;100.00;101390.16;4864986;29;20055;-91
2024/02/28 09:10:42;;;;;;;12.23;7.27;;;;;;;3.07;100.00;101379.72;4880505;29;20075;-90
2024/02/28 09:13:12;;;;;;;16.27;8.10;;;;;;;3.10;100.00;101390.22;4865237;29;20052;-90
2024/02/28 09:15:39;;;;;;;11.80;6.40;;;;;;;3.20;100.00;101392.22;4865177;29;20415;-90
2024/02/28 09:18:08;;;;;;;10.13;6.03;;;;;;;3.33;100.00;101393.34;4850062;29;20107;-90
2024/02/28 09:20:36;;;;;;;10.20;5.50;;;;;;;3.19;100.00;101392.16;4850284;29;20445;-91
2024/02/28 09:23:03;;;;;;;9.57;5.27;;;;;;;3.17;100.00;101397.34;4881213;29;20055;-89
2024/02/28 09:25:32;;;;;;;9.73;5.50;;;;;;;3.14;100.00;101402.50;4865262;29;20515;-90
2024/02/28 09:28:00;;;;;;;9.07;5.40;;;;;;;3.15;100.00;101399.06;4849152;29;20052;-89
2024/02/28 09:30:27;;;;;;;10.80;5.57;;;;;;;3.18;100.00;101406.94;4885976;29;20053;-89
2024/02/28 09:33:08;;;;;;;12.03;5.93;;;;;;;3.11;100.00;101402.44;4864980;29;20044;-90
2024/02/28 09:35:36;;;;;;;9.80;5.33;;;;;;;3.05;100.00;101397.09;4879321;29;20127;-90
2024/02/28 09:38:03;;;;;;;9.77;5.40;;;;;;;3.12;100.00;101403.34;4879229;29;20504;-90
2024/02/28 09:40:31;;;;;;;7.30;4.43;;;;;;;2.96;100.00;101407.34;4863612;29;20460;-90
2024/02/28 09:43:02;;;;;;;10.17;5.33;;;;;;;2.95;100.00;101410.81;4878822;29;20476;-90
2024/02/28 09:45:31;;;;;;;9.20;5.17;;;;;;;2.90;100.00;101404.59;4878856;29;20049;-91
2024/02/28 09:48:00;;;;;;;9.67;6.07;;;;;;;3.02;100.00;101403.13;4879218;29;20056;-90
2024/02/28 09:50:27;;;;;;;10.40;5.07;;;;;;;3.07;100.00;101411.06;4878887;29;20052;-89
2024/02/28 09:52:55;;;;;;;8.10;5.33;;;;;;;3.03;100.00;101410.13;4878499;29;20527;-89
2024/02/28 09:55:35;;;;;;;10.03;5.37;;;;;;;3.00;100.00;101420.47;4867050;29;20037;-91
2024/02/28 09:58:03;;;;;;;10.97;5.20;;;;;;;3.05;100.00;101424.09;4863572;29;20404;-90
2024/02/28 10:00:31;;;;;;;9.97;6.10;;;;;;;3.10;100.00;101425.03;4888690;29;20052;-89
2024/02/28 10:02:59;;;;;;;10.20;5.80;;;;;;;3.14;100.00;101419.91;4895776;29;20044;-90
2024/02/28 10:05:28;;;;;;;10.53;5.43;;;;;;;3.06;100.00;101425.84;4863335;29;20481;-90
2024/02/28 10:07:55;;;;;;;10.63;4.90;;;;;;;3.07;100.00;101426.72;4878824;29;20393;-89
2024/02/28 10:10:23;;;;;;;9.23;5.30;;;;;;;2.96;100.00;101434.31;4863903;29;20057;-90
2024/02/28 10:12:50;;;;;;;9.00;5.07;;;;;;;2.85;100.00;101427.06;4863450;29;20567;-89
2024/02/28 10:15:17;;;;;;;10.03;5.60;;;;;;;2.73;100.00;101428.56;4863498;29;20052;-90
2024/02/28 10:17:45;;;;;;;12.20;5.63;;;;;;;2.82;100.00;101431.38;4863370;29;20052;-89
2024/02/28 10:20:12;;;;;;;10.67;6.07;;;;;;;2.82;100.00;101433.13;4871719;29;20107;-89
2024/02/28 10:22:39;;;;;;;9.10;5.03;;;;;;;3.00;100.00;101435.25;4872312;29;20501;-91
2024/02/28 10:25:07;;;;;;;12.17;6.43;;;;;;;3.01;100.00;101442.25;4878077;29;20123;-90
2024/02/28 10:27:35;;;;;;;12.80;6.30;;;;;;;3.10;100.00;101443.31;4863163;29;20053;-92
2024/02/28 10:30:04;;;;;;;12.43;6.90;;;;;;;3.08;100.00;101449.38;4876102;29;20051;-92
2024/02/28 10:32:33;;;;;;;11.17;6.00;;;;;;;3.02;100.00;101454.44;4886248;29;20054;-90
2024/02/28 10:35:01;;;;;;;12.90;7.50;;;;;;;3.13;100.00;101454.72;4881349;29;20512;-90
2024/02/28 10:37:31;;;;;;;13.17;5.73;;;;;;;3.17;100.00;101452.19;4897031;29;20401;-90
2024/02/28 10:39:58;;;;;;;13.57;6.93;;;;;;;3.19;100.00;101462.66;4866773;29;20159;-90
2024/02/28 10:42:27;;;;;;;10.47;6.37;;;;;;;2.96;100.00;101456.94;4897032;29;20052;-90
2024/02/28 10:44:55;;;;;;;12.23;6.33;;;;;;;2.88;100.00;101459.34;4897034;29;20067;-90
2024/02/28 10:47:42;;;;;;;11.30;6.60;;;;;;;3.00;100.00;101458.75;4887035;29;20052;-89
2024/02/28 10:50:09;;;;;;;13.17;6.50;;;;;;;3.05;100.00;101462.38;4881857;29;20052;-90
2024/02/28 10:52:50;;;;;;;15.37;7.20;;;;;;;3.15;100.00;101463.44;4881964;29;20075;-88
2024/02/28 10:55:24;;;;;;;11.07;6.13;;;;;;;3.17;100.00;101466.97;4882546;29;20048;-89
2024/02/28 10:58:12;;;;;;;13.60;6.67;;;;;;;3.09;100.00;101472.00;4882383;29;20044;-89
2024/02/28 11:00:42;;;;;;;11.53;6.53;;;;;;;3.07;100.00;101471.09;4863351;29;20058;-90
2024/02/28 11:03:10;;;;;;;11.47;6.53;;;;;;;2.97;100.00;101466.53;4904937;29;20053;-90
2024/02/28 11:05:42;;;;;;;12.90;5.93;;;;;;;3.02;100.00;101467.50;4866545;29;20638;-89
2024/02/28 11:08:10;;;;;;;12.67;6.07;;;;;;;3.08;100.00;101463.31;4866254;29;20056;-90
2024/02/28 11:10:46;;;;;;;12.37;6.97;;;;;;;3.06;100.00;101458.91;4866368;29;20067;-89
2024/02/28 11:13:27;;;;;;;10.57;5.73;;;;;;;3.08;100.00;101462.41;4865636;29;20534;-90
2024/02/28 11:15:57;;;;;;;12.80;5.97;;;;;;;3.16;100.00;101459.97;4866425;29;20523;-89
2024/02/28 11:18:24;;;;;;;10.20;5.70;;;;;;;3.21;100.00;101466.22;4851220;29;20144;-90
2024/02/28 11:21:24;;;;;;;11.33;5.90;;;;;;;3.16;100.00;101462.59;4871318;29;20067;-90
2024/02/28 11:23:51;;;;;;;9.87;5.67;;;;;;;2.99;100.00;101468.31;4881522;29;20087;-89
2024/02/28 11:26:21;;;;;;;12.63;6.30;;;;;;;3.06;100.00;101471.97;4866560;29;20043;-91
2024/02/28 11:28:48;;;;;;;12.53;6.57;;;;;;;3.16;100.00;101479.16;4851410;29;20048;-91
2024/02/28 11:31:16;;;;;;;10.73;7.00;;;;;;;3.10;100.00;101484.22;4888263;29;20567;-91
2024/02/28 11:33:43;;;;;;;14.50;9.67;;;;;;;3.12;100.00;101479.06;4866050;29;20140;-89
2024/02/28 11:36:14;;;;;;;14.20;8.40;;;;;;;3.15;100.00;101477.38;4865860;29;20057;-90
2024/02/28 11:38:41;;;;;;;19.17;11.20;;;;;;;3.10;100.00;101479.88;4881486;29;20044;-90
2024/02/28 11:41:08;;;;;;;16.17;11.07;;;;;;;3.23;100.00;101482.78;4865941;29;20416;-89
2024/02/28 11:43:35;;;;;;;16.40;8.90;;;;;;;3.18;100.00;101484.38;4867381;29;20045;-90
2024/02/28 11:46:17;;;;;;;13.80;8.37;;;;;;;3.15;100.00;101485.22;4882040;29;20075;-90
2024/02/28 11:48:45;;;;;;;17.13;10.77;;;;;;;3.06;100.00;101479.78;4881724;29;20072;-90
2024/02/28 11:51:13;;;;;;;14.47;9.10;;;;;;;3.10;100.00;101482.47;4881907;29;20135;-90
2024/02/28 11:53:40;;;;;;;15.33;9.07;;;;;;;3.09;100.00;101475.50;4851421;29;20140;-88
2024/02/28 11:56:08;;;;;;;16.50;9.63;;;;;;;3.18;100.00;101482.66;4881411;29;20052;-89
2024/02/28 11:58:35;;;;;;;16.13;8.80;;;;;;;3.18;100.00;101484.38;4866213;29;20068;-90
2024/02/28 12:01:03;;;;;;;16.83;9.90;;;;;;;3.12;100.00;101484.28;4865822;29;20044;-90
2024/02/28 12:03:30;;;;;;;20.83;12.03;;;;;;;3.21;100.00;101476.66;4865649;29;20411;-90
2024/02/28 12:05:58;;;;;;;15.73;9.23;;;;;;;3.18;100.00;101479.16;4865860;29;20051;-91
2024/02/28 12:08:26;;;;;;;15.37;8.87;;;;;;;3.23;100.00;101488.88;4865489;29;20139;-90
2024/02/28 12:11:06;;;;;;;14.93;8.07;;;;;;;3.15;100.00;101479.13;4866156;29;20104;-90
2024/02/28 12:13:33;;;;;;;15.30;7.70;;;;;;;3.12;100.00;101477.31;4880220;29;20056;-89
2024/02/28 12:16:01;;;;;;;14.77;7.57;;;;;;;3.23;100.00;101480.16;4851221;29;20497;-90
2024/02/28 12:18:28;;;;;;;15.97;7.73;;;;;;;3.06;98.30;101475.44;4890764;29;20456;-90
2024/02/28 12:20:56;;;;;;;12.23;6.80;;;;;;;2.99;100.00;101485.69;4883960;29;20059;-89
2024/02/28 12:23:23;;;;;;;16.83;10.80;;;;;;;3.06;100.00;101477.19;4899087;29;20470;-88
2024/02/28 12:25:50;;;;;;;15.40;8.33;;;;;;;3.09;100.00;101472.00;4884152;29;20075;-90
2024/02/28 12:28:17;;;;;;;16.40;8.50;;;;;;;3.19;100.00;101473.09;4899326;29;20058;-89
2024/02/28 12:30:44;;;;;;;16.83;9.73;;;;;;;2.95;100.00;101478.66;4897461;29;20036;-90
2024/02/28 12:33:12;;;;;;;17.43;8.57;;;;;;;3.07;100.00;101479.81;4886779;29;20464;-90
2024/02/28 12:35:39;;;;;;;16.70;7.17;;;;;;;2.91;99.42;101468.97;4900057;29;20503;-88
2024/02/28 12:38:06;;;;;;;12.13;7.30;;;;;;;3.00;100.00;101472.69;4900054;29;20083;-90
2024/02/28 12:40:33;;;;;;;14.50;7.70;;;;;;;3.06;100.00;101474.56;4883671;29;20131;-90
2024/02/28 12:43:00;;;;;;;14.47;6.87;;;;;;;3.15;99.73;101461.72;4899209;29;20075;-90
2024/02/28 12:45:27;;;;;;;12.93;6.90;;;;;;;3.16;100.00;101465.22;4898991;29;20104;-87
2024/02/28 12:47:57;;;;;;;13.87;7.30;;;;;;;3.24;100.00;101466.25;4915603;29;20458;-90
2024/02/28 12:50:24;;;;;;;12.90;6.37;;;;;;;3.28;100.00;101473.31;4898072;29;20055;-90
2024/02/28 12:52:53;;;;;;;15.00;7.33;;;;;;;3.38;100.00;101468.34;4898531;29;20048;-89
2024/02/28 12:55:23;;;;;;;10.97;6.60;;;;;;;3.42;100.00;101473.63;4899357;29;20123;-90
2024/02/28 12:57:50;;;;;;;11.87;6.17;;;;;;;3.39;99.66;101477.94;4883379;29;20055;-90
2024/02/28 13:03:17;;;;;;;9.23;5.77;;;;;;;3.49;100.00;101475.50;4857090;29;20060;-90
2024/02/28 13:05:44;;;;;;;13.83;7.03;;;;;;;3.60;96.11;101476.63;4858529;29;20049;-91
2024/02/28 13:08:11;;;;;;;16.53;8.83;;;;;;;3.68;95.20;101482.88;4880597;29;20067;-91
2024/02/28 13:10:41;;;;;;;13.17;7.97;;;;;;;3.56;96.46;101462.63;4879312;29;20127;-93
2024/02/28 13:13:08;;;;;;;14.43;8.13;;;;;;;3.42;96.30;101469.28;4877504;29;20481;-93
2024/02/28 13:15:35;;;;;;;11.70;6.60;;;;;;;3.58;95.80;101467.88;4883289;29;20049;-89
2024/02/28 13:18:07;;;;;;;11.33;6.07;;;;;;;3.50;95.67;101469.44;4900603;29;20048;-89
2024/02/28 13:20:35;;;;;;;30.00;17.47;;;;;;;3.60;96.35;101469.66;4876136;29;20053;-91
2024/02/28 13:23:02;;;;;;;13.67;8.10;;;;;;;3.68;96.67;101470.69;4859200;29;20053;-90
2024/02/28 13:25:30;;;;;;;12.23;7.33;;;;;;;3.77;95.56;101472.63;4874450;29;20493;-91
2024/02/28 13:27:57;;;;;;;11.47;6.67;;;;;;;3.77;94.24;101472.63;4874153;29;20536;-92
2024/02/28 13:30:25;;;;;;;11.80;6.03;;;;;;;3.77;95.94;101472.63;4860700;29;20390;-91
2024/02/28 13:32:52;;;;;;;9.63;5.40;;;;;;;3.74;96.64;101480.41;4876247;29;20044;-91
2024/02/28 13:35:19;;;;;;;10.83;5.00;;;;;;;3.44;92.48;101467.56;4895999;29;20045;-93
2024/02/28 13:37:46;;;;;;;9.73;5.77;;;;;;;3.57;94.30;101469.59;4905339;29;20059;-90
2024/02/28 13:40:13;;;;;;;11.13;5.20;;;;;;;3.62;95.20;101465.38;4857606;29;20124;-91
2024/02/28 13:42:41;;;;;;;9.83;5.23;;;;;;;3.65;95.11;101469.75;4873189;29;20058;-90
2024/02/28 13:45:09;;;;;;;9.43;5.10;;;;;;;3.68;93.75;101472.44;4858159;29;20042;-91
2024/02/28 13:47:36;;;;;;;11.63;6.77;;;;;;;3.75;94.89;101473.44;4858281;29;20105;-90
2024/02/28 13:50:04;;;;;;;9.03;5.10;;;;;;;3.86;93.56;101457.09;4858727;29;20480;-90
2024/02/28 13:52:31;;;;;;;11.27;6.53;;;;;;;4.02;91.80;101458.28;4873326;29;20572;-91
2024/02/28 13:54:58;;;;;;;9.60;5.00;;;;;;;3.94;90.99;101459.88;4858648;29;20049;-92
2024/02/28 13:57:26;;;;;;;8.80;4.70;;;;;;;3.87;91.43;101466.75;4874976;29;20049;-93
2024/02/28 13:59:54;;;;;;;11.23;6.33;;;;;;;3.94;91.26;101452.03;4858671;29;20125;-91
2024/02/28 14:02:25;;;;;;;15.03;7.37;;;;;;;3.89;92.91;101462.41;4873066;29;20049;-91
2024/02/28 14:04:54;;;;;;;22.37;14.20;;;;;;;3.97;92.54;101457.34;4907234;29;20091;-92
2024/02/28 14:07:21;;;;;;;16.17;10.10;;;;;;;3.91;91.51;101457.22;4870277;29;20056;-90
2024/02/28 14:09:48;;;;;;;15.27;9.87;;;;;;;3.98;91.51;101464.31;4843144;29;20143;-92
2024/02/28 14:12:15;;;;;;;11.13;5.70;;;;;;;3.89;91.99;101462.41;4876804;29;20060;-91
2024/02/28 14:14:43;;;;;;;9.87;5.60;;;;;;;3.86;87.76;101453.63;4861512;29;20269;-92
2024/02/28 14:17:10;;;;;;;8.67;4.77;;;;;;;3.83;87.96;101458.78;4846541;29;20052;-92
2024/02/28 14:19:37;;;;;;;9.03;4.87;;;;;;;3.49;89.43;101458.09;4862094;29;20447;-91
2024/02/28 14:22:04;;;;;;;9.57;4.73;;;;;;;3.62;92.11;101459.25;4873141;29;20053;-91
2024/02/28 14:24:32;;;;;;;8.20;5.23;;;;;;;3.59;90.48;101457.44;4857999;29;20085;-91
2024/02/28 14:26:59;;;;;;;8.50;5.20;;;;;;;3.65;91.33;101465.41;4857962;29;20089;-92
2024/02/28 14:29:26;;;;;;;9.43;4.60;;;;;;;3.67;93.00;101462.81;4874831;29;20045;-90
2024/02/28 14:31:53;;;;;;;10.93;6.73;;;;;;;3.80;93.76;101459.63;4877358;29;20049;-91
2024/02/28 14:34:20;;;;;;;9.00;5.20;;;;;;;3.82;93.48;101465.75;4860642;29;20564;-90
2024/02/28 14:36:49;;;;;;;11.57;6.23;;;;;;;3.84;93.57;101464.03;4879427;29;20052;-89
2024/02/28 14:39:17;;;;;;;9.37;5.10;;;;;;;3.87;91.51;101463.25;4911170;29;20045;-93
2024/02/28 14:41:44;;;;;;;9.97;5.60;;;;;;;3.74;90.95;101475.19;4896146;29;20045;-92
2024/02/28 14:44:11;;;;;;;10.83;5.60;;;;;;;3.71;93.25;101477.75;4879166;29;20053;-90
2024/02/28 14:46:39;;;;;;;10.27;6.27;;;;;;;3.69;94.26;101476.78;4879816;29;20375;-93
2024/02/28 14:49:06;;;;;;;14.40;8.77;;;;;;;3.73;94.70;101470.81;4894858;29;20045;-92
2024/02/28 14:51:34;;;;;;;10.10;5.70;;;;;;;3.76;94.23;101470.84;4865031;29;20052;-90
2024/02/28 14:54:03;;;;;;;13.93;8.13;;;;;;;3.95;92.76;101479.94;4879670;29;20393;-90
2024/02/28 14:56:30;;;;;;;11.07;5.97;;;;;;;3.91;90.15;101480.75;4849092;29;20056;-91
2024/02/28 14:58:58;;;;;;;10.03;5.73;;;;;;;3.78;90.30;101481.34;4879584;29;20055;-91
2024/02/28 15:01:26;;;;;;;10.00;5.17;;;;;;;4.02;87.09;101487.06;4863817;29;20093;-91
2024/02/28 15:03:54;;;;;;;7.90;4.53;;;;;;;3.92;86.40;101487.72;4885853;29;20163;-89
2024/02/28 15:06:21;;;;;;;12.13;6.37;;;;;;;3.65;82.64;101490.66;4913905;29;20045;-91
2024/02/28 15:08:48;;;;;;;7.60;4.70;;;;;;;3.45;86.78;101489.34;4866115;29;20080;-90
2024/02/28 15:11:16;;;;;;;16.43;10.63;;;;;;;3.57;87.39;101481.78;4881600;29;20135;-91
2024/02/28 15:13:43;;;;;;;20.43;12.43;;;;;;;3.63;88.27;101488.03;4895692;29;20041;-91
2024/02/28 15:16:11;;;;;;;13.23;8.03;;;;;;;3.68;87.66;101483.75;4879750;29;20057;-90
2024/02/28 15:18:38;;;;;;;7.63;4.93;;;;;;;3.66;88.00;101480.25;4853079;29;20108;-90
2024/02/28 15:21:07;;;;;;;8.73;4.47;;;;;;;3.64;87.64;101486.28;4885898;29;20049;-90
2024/02/28 15:23:34;;;;;;;8.37;4.73;;;;;;;3.69;86.35;101487.25;4863953;29;20049;-91
2024/02/28 15:26:03;;;;;;;11.53;5.90;;;;;;;3.58;87.33;101494.88;4863033;29;20041;-91
2024/02/28 15:28:30;;;;;;;12.67;5.87;;;;;;;3.56;88.19;101495.69;4864669;29;20124;-91
2024/02/28 15:30:58;;;;;;;12.37;6.23;;;;;;;3.72;87.55;101500.41;4877622;29;20056;-90
2024/02/28 15:33:25;;;;;;;10.37;5.80;;;;;;;3.72;87.31;101497.78;4888899;29;20053;-92
2024/02/28 15:35:54;;;;;;;10.87;5.73;;;;;;;3.73;87.79;101496.94;4876813;29;20052;-91
2024/02/28 15:38:21;;;;;;;8.43;4.90;;;;;;;3.69;87.75;101492.47;4885353;29;20079;-91
2024/02/28 15:40:48;;;;;;;9.83;5.67;;;;;;;3.61;88.33;101496.66;4872963;29;20458;-90
2024/02/28 15:43:15;;;;;;;8.03;4.30;;;;;;;3.51;88.74;101497.31;4878392;29;20127;-91
2024/02/28 15:45:43;;;;;;;11.43;6.10;;;;;;;3.42;89.47;101497.13;4867848;29;20292;-90
2024/02/28 15:48:10;;;;;;;18.77;10.10;;;;;;;3.44;89.72;101506.75;4889661;29;20099;-92
2024/02/28 15:50:37;;;;;;;12.07;6.80;;;;;;;3.44;88.43;101498.03;4845119;29;20101;-92
2024/02/28 15:53:05;;;;;;;10.50;6.30;;;;;;;3.24;90.44;101503.69;4860420;29;20041;-93
2024/02/28 15:55:33;;;;;;;9.97;6.20;;;;;;;3.26;90.78;101501.13;4860507;29;20082;-92
2024/02/28 15:58:00;;;;;;;11.97;6.37;;;;;;;3.18;90.20;101498.31;4860317;29;20048;-91
2024/02/28 16:00:27;;;;;;;11.97;6.73;;;;;;;2.97;92.32;101509.16;4848645;29;20304;-89
2024/02/28 16:02:54;;;;;;;9.73;6.13;;;;;;;2.99;93.21;101507.47;4894595;29;20065;-91
2024/02/28 16:05:26;;;;;;;7.70;5.17;;;;;;;2.82;93.06;101506.19;4890237;29;20053;-92
2024/02/28 16:07:56;;;;;;;10.13;5.63;;;;;;;2.69;95.19;101506.72;4881603;29;20068;-91
2024/02/28 16:10:24;;;;;;;7.60;4.50;;;;;;;2.62;96.13;101495.25;4867212;29;20053;-92
2024/02/28 16:12:55;;;;;;;8.50;4.30;;;;;;;2.63;95.79;101498.75;4871480;29;20053;-92
2024/02/28 16:15:22;;;;;;;7.43;4.43;;;;;;;2.64;95.66;101503.13;4886288;29;20112;-92
2024/02/28 16:17:50;;;;;;;8.17;4.77;;;;;;;2.61;95.65;101498.72;4900537;29;20045;-91
2024/02/28 16:20:17;;;;;;;6.17;3.93;;;;;;;2.49;96.75;101503.59;4894376;29;20049;-91
2024/02/28 16:22:45;;;;;;;6.77;3.97;;;;;;;2.36;97.06;101502.41;4897920;29;20164;-90
2024/02/28 16:25:14;;;;;;;6.73;4.20;;;;;;;2.20;97.71;101506.34;4908925;29;20045;-92
2024/02/28 16:27:41;;;;;;;8.20;3.90;;;;;;;2.03;98.81;101509.31;4898377;29;20098;-91
2024/02/28 16:30:08;;;;;;;8.33;4.30;;;;;;;1.96;99.91;101506.53;4897342;29;20061;-91
2024/02/28 16:32:36;;;;;;;7.03;4.07;;;;;;;1.98;99.39;101510.06;4916245;29;20032;-91
2024/02/28 16:35:04;;;;;;;6.77;4.03;;;;;;;1.93;98.83;101508.16;4912366;29;20105;-91
2024/02/28 16:37:31;;;;;;;8.17;4.27;;;;;;;1.76;99.54;101502.47;4896523;29;20059;-89
2024/02/28 16:39:58;;;;;;;7.43;4.53;;;;;;;1.55;100.00;101509.69;4906869;29;20045;-91
2024/02/28 16:42:26;;;;;;;7.87;4.93;;;;;;;1.45;100.00;101505.91;4889797;29;20230;-91
2024/02/28 16:44:54;;;;;;;8.57;4.27;;;;;;;1.57;100.00;101498.44;4914060;29;20049;-90
2024/02/28 16:47:21;;;;;;;7.77;4.37;;;;;;;1.47;100.00;101511.16;4900235;29;20056;-90
2024/02/28 16:49:48;;;;;;;7.63;4.27;;;;;;;1.27;100.00;101510.56;4893992;29;20033;-90
2024/02/28 16:52:17;;;;;;;8.73;4.10;;;;;;;1.17;100.00;101514.59;4893973;29;20037;-90
2024/02/28 16:54:44;;;;;;;5.77;3.80;;;;;;;1.09;100.00;101521.25;4886284;29;20052;-90
2024/02/28 16:57:12;;;;;;;10.30;4.17;;;;;;;0.88;100.00;101520.59;4901110;29;20061;-90
2024/02/28 16:59:39;;;;;;;8.17;4.37;;;;;;;0.82;100.00;101527.34;4906879;29;20072;-91
2024/02/28 17:02:06;;;;;;;10.70;4.30;;;;;;;0.75;100.00;101524.50;4919866;29;20029;-92
2024/02/28 17:04:37;;;;;;;7.43;3.97;;;;;;;0.68;100.00;101528.63;4896802;29;20044;-90
2024/02/28 17:07:05;;;;;;;7.30;3.73;;;;;;;0.53;100.00;101530.72;4866273;29;20078;-91
2024/02/28 17:09:32;;;;;;;6.97;3.90;;;;;;;0.55;100.00;101522.13;4870468;29;20056;-91
2024/02/28 17:12:00;;;;;;;7.00;4.03;;;;;;;0.59;100.00;101532.59;4898596;29;20060;-90
2024/02/28 17:14:27;;;;;;;9.13;4.57;;;;;;;0.55;100.00;101523.84;4897306;29;20057;-90
2024/02/28 17:16:58;;;;;;;8.30;4.43;;;;;;;0.35;100.00;101530.97;4883455;29;20060;-90
2024/02/28 17:19:25;;;;;;;9.07;3.93;;;;;;;0.22;100.00;101527.03;4883402;29;20076;-91
2024/02/28 17:21:52;;;;;;;6.80;3.77;;;;;;;0.25;100.00;101531.44;4867546;29;20053;-90
2024/02/28 17:24:19;;;;;;;7.00;3.50;;;;;;;0.38;100.00;101532.78;4916454;29;20039;-89
2024/02/28 17:26:47;;;;;;;7.87;3.70;;;;;;;0.13;100.00;101538.81;4898519;29;20052;-90
2024/02/28 17:29:14;;;;;;;7.27;3.67;;;;;;;0.03;100.00;101534.13;4898475;29;20077;-90
2024/02/28 17:31:41;;;;;;;6.77;3.93;;;;;;;0.00;100.00;101540.13;4911125;29;20042;-89
2024/02/28 17:34:08;;;;;;;7.43;3.87;;;;;;;0.05;100.00;101538.53;4925833;29;20057;-92
2024/02/28 17:36:40;;;;;;;6.33;4.33;;;;;;;0.02;100.00;101545.34;4914256;29;20052;-91
2024/02/28 17:39:10;;;;;;;8.43;4.20;;;;;;;-0.18;100.00;101544.59;4903726;29;20048;-91
2024/02/28 17:41:40;;;;;;;8.60;4.03;;;;;;;-0.25;100.00;101547.78;4874930;29;20125;-92
2024/02/28 17:44:10;;;;;;;7.93;4.30;;;;;;;-0.25;100.00;101556.50;4904122;29;20151;-92
2024/02/28 17:46:38;;;;;;;7.47;3.10;;;;;;;-0.32;100.00;101555.38;4887013;29;20054;-92
2024/02/28 17:49:08;;;;;;;6.87;3.47;;;;;;;-0.42;100.00;101558.47;4856985;29;20060;-90
2024/02/28 17:51:36;;;;;;;6.90;3.90;;;;;;;-0.53;100.00;101551.94;4863714;29;20041;-93
2024/02/28 17:54:05;;;;;;;6.00;3.73;;;;;;;-0.53;100.00;101551.94;4871699;29;20045;-92